createdAt,value
2017-08-04T00:00:37.730Z,3.60
2017-08-04T00:03:06.839Z,3.43
2017-08-04T00:05:35.311Z,3.20
2017-08-04T00:08:04.513Z,3.83
2017-08-04T00:10:33.727Z,3.73
2017-08-04T00:13:02.190Z,3.60
2017-08-04T00:15:31.383Z,4.00
2017-08-04T00:18:00.583Z,3.43
2017-08-04T00:20:29.807Z,4.00
2017-08-04T00:22:58.236Z,4.07
2017-08-04T00:25:27.358Z,4.17
2017-08-04T00:27:56.472Z,3.90
2017-08-04T00:30:25.575Z,3.73
2017-08-04T00:32:54.692Z,4.17
2017-08-04T00:35:23.106Z,3.90
2017-08-04T00:37:51.542Z,3.80
2017-08-04T00:40:19.971Z,4.80
2017-08-04T00:42:48.418Z,4.30
2017-08-04T00:45:16.854Z,4.50
2017-08-04T00:47:46.063Z,3.90
2017-08-04T00:50:15.280Z,4.47
2017-08-04T00:52:43.700Z,4.30
2017-08-04T00:55:12.804Z,4.40
2017-08-04T00:57:41.243Z,4.63
2017-08-04T01:00:09.663Z,4.47
2017-08-04T01:02:38.097Z,4.20
2017-08-04T01:05:06.666Z,4.80
2017-08-04T01:07:35.871Z,5.40
2017-08-04T01:10:05.071Z,4.60
2017-08-04T01:12:34.267Z,4.40
2017-08-04T01:15:02.723Z,5.30
2017-08-04T01:17:31.175Z,5.20
2017-08-04T01:19:59.598Z,5.03
2017-08-04T01:22:28.839Z,5.50
2017-08-04T01:24:57.360Z,4.83
2017-08-04T01:27:26.476Z,4.90
2017-08-04T01:29:54.909Z,5.27
2017-08-04T01:32:23.146Z,5.80
2017-08-04T01:34:52.386Z,4.87
2017-08-04T01:37:20.806Z,5.20
2017-08-04T01:39:49.235Z,5.30
2017-08-04T01:42:17.645Z,5.43
2017-08-04T01:44:46.119Z,6.73
2017-08-04T01:47:14.538Z,5.33
2017-08-04T01:49:42.983Z,5.97
2017-08-04T01:52:11.410Z,5.83
2017-08-04T01:54:40.591Z,5.80
2017-08-04T01:57:09.083Z,6.10
2017-08-04T01:59:37.510Z,6.60
2017-08-04T02:02:07.396Z,6.30
2017-08-04T02:04:35.811Z,6.17
2017-08-04T02:07:04.242Z,6.13
2017-08-04T02:09:32.671Z,6.47
2017-08-04T02:12:00.763Z,6.23
2017-08-04T02:14:29.179Z,6.67
2017-08-04T02:16:57.595Z,6.23
2017-08-04T02:19:26.032Z,7.60
2017-08-04T02:21:54.450Z,6.40
2017-08-04T02:24:22.930Z,6.37
2017-08-04T02:26:51.354Z,7.20
2017-08-04T02:29:20.482Z,7.17
2017-08-04T02:31:48.939Z,6.53
2017-08-04T02:34:17.355Z,6.93
2017-08-04T02:36:46.551Z,7.00
2017-08-04T02:39:15.730Z,6.20
2017-08-04T02:41:44.155Z,7.20
2017-08-04T02:44:12.593Z,6.80
2017-08-04T02:46:41.012Z,6.70
2017-08-04T02:49:09.435Z,8.10
2017-08-04T02:51:37.868Z,7.30
2017-08-04T02:54:07.079Z,7.27
2017-08-04T02:56:35.512Z,7.00
2017-08-04T02:59:04.641Z,7.07
2017-08-04T03:01:33.838Z,6.50
2017-08-04T03:04:03.035Z,7.57
2017-08-04T03:06:32.223Z,6.30
2017-08-04T03:09:00.657Z,6.97
2017-08-04T03:11:29.348Z,6.50
2017-08-04T03:13:57.750Z,6.80
2017-08-04T03:16:26.186Z,6.23
2017-08-04T03:18:54.625Z,6.10
2017-08-04T03:21:23.759Z,6.83
2017-08-04T03:23:52.181Z,6.00
2017-08-04T03:26:20.611Z,6.47
2017-08-04T03:28:49.796Z,6.10
2017-08-04T03:31:18.927Z,6.77
2017-08-04T03:33:48.091Z,7.07
2017-08-04T03:36:16.530Z,6.90
2017-08-04T03:38:44.991Z,5.97
2017-08-04T03:41:13.416Z,6.60
2017-08-04T03:43:41.853Z,6.47
2017-08-04T03:46:10.270Z,7.30
2017-08-04T03:48:38.823Z,6.60
2017-08-04T03:51:07.247Z,6.70
2017-08-04T03:53:35.663Z,7.07
2017-08-04T03:56:04.862Z,6.77
2017-08-04T03:58:34.055Z,6.60
2017-08-04T04:01:03.067Z,6.07
2017-08-04T04:03:31.491Z,5.73
2017-08-04T04:05:59.911Z,6.40
2017-08-04T04:08:29.131Z,7.17
2017-08-04T04:10:57.691Z,6.63
2017-08-04T04:13:26.904Z,6.90
2017-08-04T04:15:56.081Z,5.73
2017-08-04T04:18:24.139Z,6.60
2017-08-04T04:20:52.588Z,6.43
2017-08-04T04:23:21.062Z,7.57
2017-08-04T04:25:49.486Z,6.97
2017-08-04T04:28:17.944Z,6.10
2017-08-04T04:30:46.372Z,6.70
2017-08-04T04:33:14.808Z,7.33
2017-08-04T04:35:43.289Z,6.40
2017-08-04T04:38:12.386Z,6.70
2017-08-04T04:40:41.516Z,7.10
2017-08-04T04:43:09.932Z,6.60
2017-08-04T04:45:38.390Z,6.67
2017-08-04T04:48:07.578Z,6.97
2017-08-04T04:50:35.998Z,6.20
2017-08-04T04:53:04.434Z,6.43
2017-08-04T04:55:32.867Z,6.80
2017-08-04T04:58:01.437Z,6.37
2017-08-04T05:00:30.202Z,6.40
2017-08-04T05:02:58.648Z,5.90
2017-08-04T05:05:27.106Z,6.33
2017-08-04T05:07:55.558Z,6.57
2017-08-04T05:10:24.768Z,6.33
2017-08-04T05:12:53.952Z,6.10
2017-08-04T05:15:23.139Z,5.60
2017-08-04T05:17:51.580Z,5.93
2017-08-04T05:20:20.013Z,6.27
2017-08-04T05:22:49.214Z,5.73
2017-08-04T05:25:18.539Z,5.20
2017-08-04T05:27:46.971Z,5.57
2017-08-04T05:30:15.631Z,4.03
2017-08-04T05:32:44.072Z,4.70
2017-08-04T05:35:13.278Z,4.50
2017-08-04T05:37:42.507Z,4.33
2017-08-04T05:40:11.029Z,4.63
2017-08-04T05:42:39.450Z,4.10
2017-08-04T05:45:07.545Z,4.20
2017-08-04T05:47:35.970Z,4.27
2017-08-04T05:50:05.407Z,4.30
2017-08-04T05:52:34.607Z,3.70
2017-08-04T05:55:03.095Z,4.10
2017-08-04T05:57:32.314Z,4.57
2017-08-04T06:00:00.726Z,4.57
2017-08-04T06:02:29.192Z,4.10
2017-08-04T06:04:57.722Z,4.90
2017-08-04T06:07:26.923Z,4.40
2017-08-04T06:09:56.110Z,4.10
2017-08-04T06:12:25.332Z,4.47
2017-08-04T06:14:53.786Z,4.63
2017-08-04T06:17:22.230Z,5.10
2017-08-04T06:19:50.655Z,4.57
2017-08-04T06:22:19.852Z,4.20
2017-08-04T06:24:48.277Z,4.23
2017-08-04T06:27:16.495Z,4.10
2017-08-04T06:29:44.869Z,4.07
2017-08-04T06:32:13.293Z,3.67
2017-08-04T06:34:41.983Z,4.40
2017-08-04T06:37:10.411Z,3.83
2017-08-04T06:39:39.018Z,4.73
2017-08-04T06:42:07.478Z,4.20
2017-08-04T06:44:35.891Z,3.83
2017-08-04T06:47:05.102Z,4.10
2017-08-04T06:49:45.278Z,4.10
2017-08-04T06:52:25.048Z,4.40
2017-08-04T06:55:04.546Z,4.10
2017-08-04T06:57:33.818Z,3.13
2017-08-04T07:00:02.968Z,3.57
2017-08-04T07:02:31.438Z,3.30
2017-08-04T07:04:59.871Z,3.27
2017-08-04T07:07:28.287Z,3.93
2017-08-04T07:09:57.408Z,3.53
2017-08-04T07:12:25.828Z,3.30
2017-08-04T07:14:54.254Z,3.20
2017-08-04T07:17:25.166Z,3.17
2017-08-04T07:19:53.585Z,3.10
2017-08-04T07:22:22.086Z,3.63
2017-08-04T07:24:50.501Z,3.23
2017-08-04T07:27:18.767Z,2.93
2017-08-04T07:29:47.207Z,3.23
2017-08-04T07:32:15.651Z,2.80
2017-08-04T07:34:44.073Z,2.30
2017-08-04T07:37:12.500Z,1.50
2017-08-04T07:39:40.904Z,1.77
2017-08-04T07:42:10.217Z,2.27
2017-08-04T07:44:39.324Z,1.80
2017-08-04T07:47:07.844Z,1.97
2017-08-04T07:49:36.271Z,1.80
2017-08-04T07:52:04.703Z,1.53
2017-08-04T07:54:33.346Z,1.53
2017-08-04T07:57:02.526Z,1.37
2017-08-04T07:59:30.974Z,1.30
2017-08-04T08:01:59.471Z,1.00
2017-08-04T08:04:27.761Z,1.50
2017-08-04T08:06:56.234Z,1.17
2017-08-04T08:09:24.650Z,1.67
2017-08-04T08:11:53.917Z,1.40
2017-08-04T08:14:22.683Z,1.60
2017-08-04T08:16:51.116Z,1.40
2017-08-04T08:19:20.399Z,1.40
2017-08-04T08:21:48.826Z,1.20
2017-08-04T08:24:17.424Z,1.63
2017-08-04T08:26:45.848Z,1.13
2017-08-04T08:29:14.299Z,1.07
2017-08-04T08:31:42.728Z,1.40
2017-08-04T08:34:12.039Z,0.97
2017-08-04T08:36:41.282Z,1.10
2017-08-04T08:39:10.723Z,0.83
2017-08-04T08:41:39.171Z,1.10
2017-08-04T08:44:07.590Z,1.57
2017-08-04T08:46:36.794Z,1.30
2017-08-04T08:49:05.983Z,1.00
2017-08-04T08:51:34.398Z,1.30
2017-08-04T08:54:02.802Z,1.10
2017-08-04T08:56:31.219Z,1.30
2017-08-04T08:59:00.446Z,1.00
2017-08-04T09:01:29.630Z,1.70
2017-08-04T09:03:58.323Z,1.20
2017-08-04T09:06:27.535Z,1.00
2017-08-04T09:08:56.714Z,1.07
2017-08-04T09:11:25.919Z,1.30
2017-08-04T09:13:55.107Z,1.20
2017-08-04T09:16:23.683Z,1.50
2017-08-04T09:18:52.294Z,1.30
2017-08-04T09:21:21.512Z,1.20
2017-08-04T09:23:49.950Z,1.20
2017-08-04T09:26:18.391Z,1.20
2017-08-04T09:28:46.940Z,1.45
2017-08-04T09:31:15.373Z,1.30
2017-08-04T09:33:43.822Z,1.20
2017-08-04T09:36:12.249Z,1.10
2017-08-04T09:38:40.667Z,1.00
2017-08-04T09:41:09.396Z,0.90
2017-08-04T09:43:37.938Z,1.03
2017-08-04T09:46:07.143Z,1.20
2017-08-04T09:48:35.571Z,1.40
2017-08-04T09:51:04.006Z,1.30
2017-08-04T09:53:32.430Z,1.27
2017-08-04T09:56:00.897Z,1.10
2017-08-04T09:58:30.812Z,1.27
2017-08-04T10:00:59.263Z,1.40
2017-08-04T10:03:28.448Z,1.50
2017-08-04T10:05:57.761Z,1.40
2017-08-04T10:08:26.984Z,1.10
2017-08-04T10:10:55.453Z,1.07
2017-08-04T10:13:23.967Z,1.20
2017-08-04T10:15:52.392Z,1.40
2017-08-04T10:18:21.534Z,1.20
2017-08-04T10:20:49.949Z,1.07
2017-08-04T10:23:18.400Z,1.67
2017-08-04T10:25:46.827Z,1.37
2017-08-04T10:28:15.244Z,1.13
2017-08-04T10:30:43.719Z,1.00
2017-08-04T10:33:12.900Z,1.17
2017-08-04T10:35:41.388Z,1.00
2017-08-04T10:38:10.582Z,1.30
2017-08-04T10:40:39.275Z,1.00
2017-08-04T10:43:07.733Z,1.03
2017-08-04T10:45:36.608Z,0.80
2017-08-04T10:48:05.239Z,1.17
2017-08-04T10:50:34.439Z,1.50
2017-08-04T10:53:03.673Z,1.50
2017-08-04T10:55:32.106Z,1.20
2017-08-04T10:58:00.522Z,1.20
2017-08-04T11:00:29.076Z,1.63
2017-08-04T11:02:57.512Z,1.10
2017-08-04T11:05:25.942Z,1.40
2017-08-04T11:07:54.361Z,1.20
2017-08-04T11:10:22.784Z,1.20
2017-08-04T11:12:51.507Z,1.00
2017-08-04T11:15:19.940Z,1.27
2017-08-04T11:17:48.462Z,1.70
2017-08-04T11:20:16.893Z,1.00
2017-08-04T11:22:45.306Z,1.20
2017-08-04T11:25:13.760Z,1.43
2017-08-04T11:27:42.199Z,1.33
2017-08-04T11:30:10.642Z,1.27
2017-08-04T11:32:39.083Z,1.70
2017-08-04T11:35:07.785Z,1.10
2017-08-04T11:37:36.233Z,1.57
2017-08-04T11:40:04.650Z,1.40
2017-08-04T11:42:33.098Z,1.30
2017-08-04T11:45:01.598Z,1.23
2017-08-04T11:47:30.035Z,1.30
2017-08-04T11:49:58.467Z,1.73
2017-08-04T11:52:26.932Z,1.53
2017-08-04T11:54:55.372Z,1.50
2017-08-04T11:57:23.815Z,1.40
2017-08-04T11:59:52.252Z,1.40
2017-08-04T12:02:20.738Z,1.50
2017-08-04T12:04:49.994Z,1.40
2017-08-04T12:07:18.603Z,1.67
2017-08-04T12:09:47.019Z,1.73
2017-08-04T12:12:15.458Z,1.13
2017-08-04T12:14:44.104Z,1.17
2017-08-04T12:17:12.555Z,1.70
2017-08-04T12:19:41.030Z,1.83
2017-08-04T12:22:09.460Z,1.43
2017-08-04T12:24:37.930Z,1.50
2017-08-04T12:27:06.359Z,1.60
2017-08-04T12:29:35.462Z,1.60
2017-08-04T12:32:03.928Z,1.47
2017-08-04T12:34:32.357Z,1.30
2017-08-04T12:37:00.792Z,1.47
2017-08-04T12:39:29.212Z,1.10
2017-08-04T12:41:58.329Z,1.50
2017-08-04T12:44:26.763Z,1.50
2017-08-04T12:46:55.898Z,1.47
2017-08-04T12:49:24.347Z,1.30
2017-08-04T12:51:52.886Z,1.43
2017-08-04T12:54:21.306Z,1.30
2017-08-04T12:56:49.774Z,1.30
2017-08-04T12:59:18.211Z,1.10
2017-08-04T13:01:46.654Z,1.47
2017-08-04T13:04:15.838Z,1.37
2017-08-04T13:06:44.254Z,1.27
2017-08-04T13:09:12.691Z,1.40
2017-08-04T13:11:41.111Z,1.30
2017-08-04T13:14:10.407Z,1.53
2017-08-04T13:16:39.216Z,1.50
2017-08-04T13:19:07.691Z,1.27
2017-08-04T13:21:36.813Z,1.30
2017-08-04T13:24:05.257Z,1.50
2017-08-04T13:26:34.436Z,1.20
2017-08-04T13:29:02.866Z,1.47
2017-08-04T13:31:31.296Z,1.40
2017-08-04T13:33:59.719Z,1.57
2017-08-04T13:36:28.171Z,1.50
2017-08-04T13:38:56.592Z,1.60
2017-08-04T13:41:25.034Z,1.43
2017-08-04T13:43:54.227Z,1.33
2017-08-04T13:46:22.673Z,1.63
2017-08-04T13:48:51.121Z,1.37
2017-08-04T13:51:20.291Z,1.27
2017-08-04T13:53:48.736Z,1.77
2017-08-04T13:56:17.162Z,1.47
2017-08-04T13:58:46.379Z,1.60
2017-08-04T14:01:15.572Z,1.47
2017-08-04T14:03:44.767Z,1.53
2017-08-04T14:06:13.967Z,1.50
2017-08-04T14:08:43.183Z,1.53
2017-08-04T14:11:11.607Z,1.60
2017-08-04T14:13:40.020Z,1.30
2017-08-04T14:16:09.245Z,1.40
2017-08-04T14:18:37.675Z,1.33
2017-08-04T14:21:06.113Z,1.30
2017-08-04T14:23:34.537Z,1.57
2017-08-04T14:26:02.964Z,1.80
2017-08-04T14:28:32.087Z,1.70
2017-08-04T14:31:00.519Z,1.50
2017-08-04T14:33:29.714Z,1.90
2017-08-04T14:35:58.160Z,1.83
2017-08-04T14:38:26.616Z,1.70
2017-08-04T14:40:55.059Z,1.60
2017-08-04T14:43:23.499Z,1.60
2017-08-04T14:45:51.911Z,1.77
2017-08-04T14:48:20.432Z,1.63
2017-08-04T14:50:48.864Z,1.63
2017-08-04T14:53:17.306Z,1.80
2017-08-04T14:55:45.759Z,1.83
2017-08-04T14:58:14.969Z,1.63
2017-08-04T15:00:44.178Z,1.60
2017-08-04T15:03:12.643Z,1.57
2017-08-04T15:05:41.868Z,1.60
2017-08-04T15:08:10.298Z,1.60
2017-08-04T15:10:38.762Z,1.60
2017-08-04T15:13:08.148Z,2.23
2017-08-04T15:15:37.222Z,1.60
2017-08-04T15:18:05.655Z,1.70
2017-08-04T15:20:34.885Z,1.50
2017-08-04T15:23:04.066Z,1.30
2017-08-04T15:25:32.511Z,1.60
2017-08-04T15:28:00.947Z,1.50
2017-08-04T15:30:30.134Z,1.70
2017-08-04T15:32:58.769Z,1.73
2017-08-04T15:35:27.010Z,1.23
2017-08-04T15:37:56.292Z,1.80
2017-08-04T15:40:24.934Z,1.40
2017-08-04T15:42:53.360Z,2.10
2017-08-04T15:45:21.787Z,1.40
2017-08-04T15:47:50.236Z,1.50
2017-08-04T15:50:19.459Z,1.60
2017-08-04T15:52:47.894Z,1.43
2017-08-04T15:55:16.367Z,1.90
2017-08-04T15:57:44.783Z,1.50
2017-08-04T16:00:13.970Z,1.60
2017-08-04T16:02:43.181Z,1.60
2017-08-04T16:05:12.371Z,1.63
2017-08-04T16:07:40.810Z,1.63
2017-08-04T16:10:09.939Z,1.73
2017-08-04T16:12:38.367Z,1.80
2017-08-04T16:15:06.937Z,2.20
2017-08-04T16:17:35.346Z,1.60
2017-08-04T16:20:03.853Z,1.73
2017-08-04T16:22:32.954Z,1.80
2017-08-04T16:25:01.378Z,1.50
2017-08-04T16:27:29.816Z,1.50
2017-08-04T16:29:58.355Z,1.53
2017-08-04T16:32:26.838Z,1.53
2017-08-04T16:34:55.316Z,1.60
2017-08-04T16:37:23.736Z,1.57
2017-08-04T16:39:52.319Z,1.57
2017-08-04T16:42:20.802Z,1.27
2017-08-04T16:44:49.227Z,1.67
2017-08-04T16:47:17.477Z,1.60
2017-08-04T16:49:45.926Z,1.60
2017-08-04T16:52:14.159Z,1.70
2017-08-04T16:54:42.630Z,1.60
2017-08-04T16:57:11.737Z,1.60
2017-08-04T16:59:40.207Z,1.33
2017-08-04T17:02:08.704Z,1.90
2017-08-04T17:04:37.139Z,1.20
2017-08-04T17:07:05.594Z,1.40
2017-08-04T17:09:34.002Z,1.67
2017-08-04T17:12:02.473Z,1.23
2017-08-04T17:14:30.907Z,1.60
2017-08-04T17:16:59.370Z,1.40
2017-08-04T17:19:27.814Z,1.60
2017-08-04T17:21:56.247Z,1.90
2017-08-04T17:24:24.963Z,1.70
2017-08-04T17:26:53.383Z,1.70
2017-08-04T17:29:21.844Z,1.60
2017-08-04T17:31:50.265Z,1.43
2017-08-04T17:34:18.706Z,1.73
2017-08-04T17:36:47.135Z,1.43
2017-08-04T17:39:15.560Z,1.40
2017-08-04T17:41:43.996Z,1.93
2017-08-04T17:44:12.432Z,1.57
2017-08-04T17:46:40.889Z,1.70
2017-08-04T17:49:09.334Z,1.40
2017-08-04T17:51:37.791Z,1.77
2017-08-04T17:54:06.230Z,1.70
2017-08-04T17:56:34.747Z,1.47
2017-08-04T17:59:03.199Z,2.10
2017-08-04T18:01:31.625Z,1.67
2017-08-04T18:04:00.084Z,1.87
2017-08-04T18:06:28.508Z,2.53
2017-08-04T18:08:56.994Z,2.07
2017-08-04T18:11:25.464Z,2.10
2017-08-04T18:13:54.590Z,1.97
2017-08-04T18:16:23.011Z,1.73
2017-08-04T18:18:51.460Z,2.07
2017-08-04T18:21:20.332Z,2.07
2017-08-04T18:23:48.766Z,2.23
2017-08-04T18:26:17.195Z,1.70
2017-08-04T18:28:45.632Z,9.20
2017-08-04T18:31:14.059Z,2.40
2017-08-04T18:33:42.538Z,2.30
2017-08-04T18:36:10.978Z,2.30
2017-08-04T18:38:39.411Z,2.10
2017-08-04T18:41:07.873Z,3.60
2017-08-04T18:43:36.307Z,2.10
2017-08-04T18:46:04.738Z,2.63
2017-08-04T18:48:33.200Z,2.20
2017-08-04T18:51:01.651Z,1.97
2017-08-04T18:53:30.075Z,1.83
2017-08-04T18:55:58.583Z,2.30
2017-08-04T18:58:27.772Z,2.47
2017-08-04T19:00:56.235Z,2.00
2017-08-04T19:03:24.684Z,1.90
2017-08-04T19:05:53.144Z,2.67
2017-08-04T19:08:21.631Z,5.17
2017-08-04T19:10:50.088Z,43.30
2017-08-04T19:13:19.286Z,13.90
2017-08-04T19:15:48.483Z,2.43
2017-08-04T19:18:17.714Z,2.77
2017-08-04T19:20:46.829Z,2.10
2017-08-04T19:23:15.279Z,2.47
2017-08-04T19:25:44.469Z,2.47
2017-08-04T19:28:14.379Z,2.40
2017-08-04T19:30:42.819Z,2.73
2017-08-04T19:33:11.247Z,5.10
2017-08-04T19:35:40.518Z,3.03
2017-08-04T19:38:08.947Z,2.20
2017-08-04T19:40:37.387Z,2.50
2017-08-04T19:43:05.840Z,2.20
2017-08-04T19:45:35.177Z,2.30
2017-08-04T19:48:03.634Z,2.87
2017-08-04T19:50:32.067Z,2.30
2017-08-04T19:53:01.932Z,2.17
2017-08-04T19:55:30.402Z,2.50
2017-08-04T19:57:58.859Z,2.80
2017-08-04T20:00:27.283Z,2.30
2017-08-04T20:02:55.736Z,2.33
2017-08-04T20:05:24.159Z,2.40
2017-08-04T20:07:52.595Z,2.60
2017-08-04T20:10:21.075Z,2.40
2017-08-04T20:12:49.530Z,2.40
2017-08-04T20:15:18.749Z,2.70
2017-08-04T20:17:47.206Z,2.33
2017-08-04T20:20:16.366Z,2.30
2017-08-04T20:22:44.842Z,2.80
2017-08-04T20:25:13.287Z,3.27
2017-08-04T20:27:41.736Z,2.93
2017-08-04T20:30:10.154Z,3.67
2017-08-04T20:32:38.627Z,3.63
2017-08-04T20:35:07.819Z,3.80
2017-08-04T20:37:37.220Z,4.00
2017-08-04T20:40:06.434Z,3.60
2017-08-04T20:42:34.869Z,4.10
2017-08-04T20:45:03.297Z,4.23
2017-08-04T20:47:32.503Z,3.60
2017-08-04T20:50:00.932Z,3.97
2017-08-04T20:52:29.391Z,3.90
2017-08-04T20:54:57.815Z,4.40
2017-08-04T20:57:26.261Z,3.90
2017-08-04T20:59:54.726Z,3.37
2017-08-04T21:02:23.138Z,3.33
2017-08-04T21:04:51.579Z,3.73
2017-08-04T21:07:20.061Z,3.23
2017-08-04T21:09:48.491Z,3.33
2017-08-04T21:12:16.943Z,4.00
2017-08-04T21:14:45.363Z,4.30
2017-08-04T21:17:13.777Z,3.70
2017-08-04T21:19:42.227Z,4.03
2017-08-04T21:22:11.439Z,4.63
2017-08-04T21:24:40.743Z,4.07
2017-08-04T21:27:09.943Z,4.43
2017-08-04T21:29:39.167Z,4.00
2017-08-04T21:32:07.619Z,3.90
2017-08-04T21:34:36.831Z,3.40
2017-08-04T21:37:05.307Z,3.83
2017-08-04T21:39:34.503Z,3.80
2017-08-04T21:42:02.959Z,3.70
2017-08-04T21:44:31.377Z,3.50
2017-08-04T21:46:59.850Z,4.10
2017-08-04T21:49:28.446Z,3.50
2017-08-04T21:51:57.632Z,3.90
2017-08-04T21:54:26.750Z,3.67
2017-08-04T21:56:55.179Z,4.07
2017-08-04T21:59:23.602Z,3.40
2017-08-04T22:01:52.054Z,3.67
2017-08-04T22:04:20.463Z,3.47
2017-08-04T22:06:49.671Z,4.63
2017-08-04T22:09:18.095Z,4.20
2017-08-04T22:11:46.512Z,4.30
2017-08-04T22:14:14.948Z,3.40
2017-08-04T22:16:43.394Z,3.63
2017-08-04T22:19:12.597Z,4.40
2017-08-04T22:21:41.064Z,3.93
2017-08-04T22:24:10.271Z,3.83
2017-08-04T22:26:38.780Z,4.17
2017-08-04T22:29:07.207Z,4.60
2017-08-04T22:31:35.677Z,3.70
2017-08-04T22:34:04.099Z,3.60
2017-08-04T22:36:32.352Z,3.70
2017-08-04T22:39:00.772Z,3.93
2017-08-04T22:41:29.218Z,3.77
2017-08-04T22:43:58.555Z,4.03
2017-08-04T22:46:28.442Z,3.60
2017-08-04T22:48:56.891Z,3.63
2017-08-04T22:51:25.318Z,5.50
2017-08-04T22:53:53.763Z,3.67
2017-08-04T22:56:22.185Z,3.53
2017-08-04T22:58:50.627Z,4.20
2017-08-04T23:01:19.736Z,4.03
2017-08-04T23:03:48.855Z,3.77
2017-08-04T23:06:18.060Z,4.23
2017-08-04T23:08:46.494Z,3.77
2017-08-04T23:11:14.918Z,4.50
2017-08-04T23:13:43.364Z,4.00
2017-08-04T23:16:11.795Z,3.90
2017-08-04T23:18:40.216Z,3.63
2017-08-04T23:21:08.735Z,3.73
2017-08-04T23:23:37.923Z,3.87
2017-08-04T23:26:07.187Z,3.50
2017-08-04T23:28:36.324Z,3.17
2017-08-04T23:31:05.535Z,3.77
2017-08-04T23:33:34.834Z,4.00
2017-08-04T23:36:04.022Z,3.13
2017-08-04T23:38:33.360Z,3.60
2017-08-04T23:41:01.798Z,3.87
2017-08-04T23:43:30.953Z,3.80
2017-08-04T23:45:59.374Z,3.87
2017-08-04T23:48:27.797Z,3.10
2017-08-04T23:50:56.267Z,4.60
2017-08-04T23:53:25.478Z,4.23
2017-08-04T23:55:53.915Z,3.50
2017-08-04T23:58:22.339Z,4.63
